createdAt,value
2019-05-01T00:00:18.375Z,13.93
2019-05-01T00:01:19.769Z,14.01
2019-05-01T00:02:21.166Z,13.94
2019-05-01T00:03:22.573Z,13.81
2019-05-01T00:04:23.963Z,13.87
2019-05-01T00:05:25.360Z,13.90
2019-05-01T00:06:26.770Z,13.87
2019-05-01T00:07:28.168Z,13.83
2019-05-01T00:08:29.578Z,13.86
2019-05-01T00:09:30.972Z,13.87
2019-05-01T00:10:32.406Z,13.88
2019-05-01T00:11:33.858Z,13.86
2019-05-01T00:12:35.300Z,13.84
2019-05-01T00:13:36.685Z,13.79
2019-05-01T00:14:38.082Z,13.83
2019-05-01T00:15:39.525Z,13.84
2019-05-01T00:16:40.925Z,13.86
2019-05-01T00:17:42.319Z,13.86
2019-05-01T00:18:43.723Z,13.84
2019-05-01T00:19:45.155Z,13.84
2019-05-01T00:20:46.633Z,13.88
2019-05-01T00:21:48.031Z,13.84
2019-05-01T00:22:49.423Z,13.83
2019-05-01T00:23:50.821Z,13.76
2019-05-01T00:24:52.337Z,13.83
2019-05-01T00:25:53.746Z,13.81
2019-05-01T00:26:55.139Z,13.84
2019-05-01T00:27:56.531Z,13.81
2019-05-01T00:28:57.955Z,13.84
2019-05-01T00:29:59.380Z,13.87
2019-05-01T00:31:00.765Z,13.81
2019-05-01T00:32:02.158Z,13.83
2019-05-01T00:33:03.557Z,13.84
2019-05-01T00:34:04.954Z,13.83
2019-05-01T00:35:06.350Z,13.81
2019-05-01T00:36:07.746Z,13.84
2019-05-01T00:37:09.141Z,13.81
2019-05-01T00:38:10.536Z,13.79
2019-05-01T00:39:11.978Z,13.75
2019-05-01T00:40:13.362Z,13.75
2019-05-01T00:41:14.754Z,13.80
2019-05-01T00:42:16.146Z,13.81
2019-05-01T00:43:17.531Z,13.73
2019-05-01T00:44:18.920Z,13.81
2019-05-01T00:45:20.318Z,13.79
2019-05-01T00:46:21.700Z,13.79
2019-05-01T00:47:23.094Z,13.76
2019-05-01T00:48:24.484Z,13.69
2019-05-01T00:49:25.870Z,13.76
2019-05-01T00:50:27.257Z,13.65
2019-05-01T00:51:28.648Z,13.68
2019-05-01T00:52:30.043Z,13.61
2019-05-01T00:53:31.430Z,13.68
2019-05-01T00:54:32.821Z,13.63
2019-05-01T00:55:34.215Z,13.68
2019-05-01T00:56:35.611Z,13.65
2019-05-01T00:57:37.006Z,13.68
2019-05-01T00:58:38.395Z,13.69
2019-05-01T00:59:39.779Z,13.65
2019-05-01T01:00:43.211Z,13.65
2019-05-01T01:01:42.518Z,13.62
2019-05-01T01:02:43.965Z,13.65
2019-05-01T01:03:45.351Z,13.66
2019-05-01T01:04:46.753Z,13.66
2019-05-01T01:05:48.146Z,13.66
2019-05-01T01:06:49.542Z,13.57
2019-05-01T01:07:50.933Z,13.61
2019-05-01T01:08:52.322Z,13.66
2019-05-01T01:09:53.710Z,13.51
2019-05-01T01:10:55.094Z,13.57
2019-05-01T01:11:56.511Z,13.57
2019-05-01T01:12:57.903Z,13.51
2019-05-01T01:13:59.286Z,13.48
2019-05-01T01:15:00.679Z,13.53
2019-05-01T01:16:02.069Z,13.55
2019-05-01T01:17:03.464Z,13.55
2019-05-01T01:18:04.866Z,13.51
2019-05-01T01:19:06.256Z,13.47
2019-05-01T01:20:07.632Z,13.53
2019-05-01T01:21:09.034Z,13.51
2019-05-01T01:22:10.421Z,13.46
2019-05-01T01:23:11.819Z,13.38
2019-05-01T01:24:13.218Z,13.46
2019-05-01T01:25:14.600Z,13.39
2019-05-01T01:26:15.985Z,13.44
2019-05-01T01:27:17.386Z,13.41
2019-05-01T01:28:18.792Z,13.39
2019-05-01T01:29:20.217Z,13.44
2019-05-01T01:30:21.581Z,13.41
2019-05-01T01:31:22.971Z,13.48
2019-05-01T01:32:24.357Z,13.44
2019-05-01T01:33:25.745Z,13.38
2019-05-01T01:34:27.141Z,13.31
2019-05-01T01:35:28.530Z,13.32
2019-05-01T01:36:29.923Z,13.41
2019-05-01T01:37:31.309Z,13.35
2019-05-01T01:38:32.706Z,13.36
2019-05-01T01:39:34.103Z,13.36
2019-05-01T01:40:35.504Z,13.31
2019-05-01T01:41:36.900Z,13.35
2019-05-01T01:42:38.294Z,13.28
2019-05-01T01:43:39.683Z,13.35
2019-05-01T01:44:41.092Z,13.25
2019-05-01T01:45:42.484Z,13.29
2019-05-01T01:46:43.876Z,13.28
2019-05-01T01:47:45.268Z,13.27
2019-05-01T01:48:46.656Z,13.28
2019-05-01T01:49:48.055Z,13.22
2019-05-01T01:50:49.448Z,13.17
2019-05-01T01:51:50.837Z,13.19
2019-05-01T01:52:52.246Z,13.24
2019-05-01T01:53:53.672Z,13.24
2019-05-01T01:54:55.059Z,13.14
2019-05-01T01:55:56.444Z,13.19
2019-05-01T01:56:57.846Z,13.14
2019-05-01T01:57:59.237Z,13.16
2019-05-01T01:59:00.630Z,13.19
2019-05-01T02:00:02.027Z,13.13
2019-05-01T02:01:09.344Z,13.14
2019-05-01T02:02:04.773Z,13.14
2019-05-01T02:03:06.155Z,13.17
2019-05-01T02:04:07.549Z,13.06
2019-05-01T02:05:08.937Z,13.13
2019-05-01T02:06:10.333Z,13.04
2019-05-01T02:07:11.728Z,13.03
2019-05-01T02:08:13.124Z,13.01
2019-05-01T02:09:14.520Z,13.01
2019-05-01T02:10:15.988Z,12.96
2019-05-01T02:11:17.262Z,12.94
2019-05-01T02:12:18.658Z,12.92
2019-05-01T02:13:20.046Z,12.89
2019-05-01T02:14:21.443Z,12.85
2019-05-01T02:15:22.838Z,12.89
2019-05-01T02:16:24.232Z,12.89
2019-05-01T02:17:25.626Z,12.80
2019-05-01T02:18:27.045Z,12.81
2019-05-01T02:19:28.431Z,12.81
2019-05-01T02:20:29.813Z,12.84
2019-05-01T02:21:31.197Z,12.71
2019-05-01T02:22:32.595Z,12.74
2019-05-01T02:23:33.986Z,12.61
2019-05-01T02:24:35.378Z,12.61
2019-05-01T02:25:36.773Z,12.59
2019-05-01T02:26:38.209Z,12.58
2019-05-01T02:27:39.607Z,12.63
2019-05-01T02:28:41.005Z,12.62
2019-05-01T02:29:42.397Z,12.58
2019-05-01T02:30:43.786Z,12.62
2019-05-01T02:31:45.175Z,12.61
2019-05-01T02:32:46.569Z,12.59
2019-05-01T02:33:47.961Z,12.55
2019-05-01T02:34:49.367Z,12.58
2019-05-01T02:35:50.765Z,12.56
2019-05-01T02:36:52.162Z,12.49
2019-05-01T02:37:53.544Z,12.46
2019-05-01T02:38:54.936Z,12.52
2019-05-01T02:39:56.321Z,12.43
2019-05-01T02:40:57.732Z,12.41
2019-05-01T02:41:59.109Z,12.30
2019-05-01T02:43:00.503Z,12.33
2019-05-01T02:44:01.897Z,12.31
2019-05-01T02:45:03.301Z,12.33
2019-05-01T02:46:04.687Z,12.30
2019-05-01T02:47:06.081Z,12.33
2019-05-01T02:48:07.477Z,12.29
2019-05-01T02:49:08.863Z,12.25
2019-05-01T02:50:10.267Z,12.33
2019-05-01T02:51:11.655Z,12.31
2019-05-01T02:52:13.050Z,12.16
2019-05-01T02:53:14.438Z,12.11
2019-05-01T02:54:15.835Z,12.21
2019-05-01T02:55:17.216Z,12.18
2019-05-01T02:56:18.619Z,12.15
2019-05-01T02:57:20.018Z,12.16
2019-05-01T02:58:21.407Z,12.16
2019-05-01T02:59:22.796Z,12.13
2019-05-01T03:00:24.187Z,12.12
2019-05-01T03:01:25.573Z,12.07
2019-05-01T03:02:26.993Z,12.01
2019-05-01T03:03:28.368Z,12.05
2019-05-01T03:04:29.754Z,11.98
2019-05-01T03:05:31.138Z,12.00
2019-05-01T03:06:32.533Z,11.98
2019-05-01T03:07:33.932Z,11.96
2019-05-01T03:08:35.311Z,11.90
2019-05-01T03:09:36.710Z,11.90
2019-05-01T03:10:38.104Z,11.85
2019-05-01T03:11:39.511Z,11.87
2019-05-01T03:12:40.887Z,11.87
2019-05-01T03:13:42.272Z,11.82
2019-05-01T03:14:43.667Z,11.87
2019-05-01T03:15:45.057Z,11.84
2019-05-01T03:16:46.450Z,11.85
2019-05-01T03:17:47.836Z,11.79
2019-05-01T03:18:49.228Z,11.74
2019-05-01T03:19:50.607Z,11.79
2019-05-01T03:20:52.012Z,11.78
2019-05-01T03:21:53.400Z,11.70
2019-05-01T03:22:54.789Z,11.72
2019-05-01T03:23:56.173Z,11.75
2019-05-01T03:24:57.567Z,11.64
2019-05-01T03:25:58.950Z,11.70
2019-05-01T03:27:00.348Z,11.62
2019-05-01T03:28:01.736Z,11.70
2019-05-01T03:29:03.128Z,11.60
2019-05-01T03:30:04.540Z,11.69
2019-05-01T03:31:05.940Z,11.69
2019-05-01T03:32:18.033Z,11.66
2019-05-01T03:33:08.907Z,11.62
2019-05-01T03:34:10.292Z,11.63
2019-05-01T03:35:11.681Z,11.59
2019-05-01T03:36:13.073Z,11.63
2019-05-01T03:37:14.461Z,11.62
2019-05-01T03:38:15.855Z,11.60
2019-05-01T03:39:17.255Z,11.56
2019-05-01T03:40:18.649Z,11.63
2019-05-01T03:41:20.041Z,11.66
2019-05-01T03:42:21.433Z,11.54
2019-05-01T03:43:22.828Z,11.63
2019-05-01T03:44:24.221Z,11.72
2019-05-01T03:45:25.617Z,11.66
2019-05-01T03:46:26.999Z,11.66
2019-05-01T03:47:28.391Z,11.53
2019-05-01T03:48:29.786Z,11.54
2019-05-01T03:49:31.176Z,11.63
2019-05-01T03:50:32.568Z,11.62
2019-05-01T03:51:33.972Z,11.57
2019-05-01T03:52:35.370Z,11.56
2019-05-01T03:53:36.769Z,11.62
2019-05-01T03:54:38.157Z,11.57
2019-05-01T03:55:39.555Z,11.56
2019-05-01T03:56:40.938Z,11.57
2019-05-01T03:57:42.345Z,11.57
2019-05-01T03:58:43.735Z,11.54
2019-05-01T03:59:45.122Z,11.57
2019-05-01T04:00:46.520Z,11.46
2019-05-01T04:01:47.923Z,11.49
2019-05-01T04:02:49.310Z,11.49
2019-05-01T04:03:50.725Z,11.49
2019-05-01T04:04:52.115Z,11.53
2019-05-01T04:05:53.563Z,11.48
2019-05-01T04:06:54.891Z,11.46
2019-05-01T04:07:56.287Z,11.48
2019-05-01T04:08:57.676Z,11.49
2019-05-01T04:09:59.083Z,11.53
2019-05-01T04:11:00.477Z,11.53
2019-05-01T04:12:01.870Z,11.49
2019-05-01T04:13:03.267Z,11.59
2019-05-01T04:14:04.670Z,11.53
2019-05-01T04:15:06.055Z,11.53
2019-05-01T04:16:07.452Z,11.56
2019-05-01T04:17:08.851Z,11.45
2019-05-01T04:18:10.237Z,11.48
2019-05-01T04:19:11.633Z,11.54
2019-05-01T04:20:13.024Z,11.56
2019-05-01T04:21:14.426Z,11.49
2019-05-01T04:22:15.798Z,11.45
2019-05-01T04:23:17.191Z,11.42
2019-05-01T04:24:18.586Z,11.54
2019-05-01T04:25:19.978Z,11.49
2019-05-01T04:26:21.369Z,11.46
2019-05-01T04:27:22.759Z,11.49
2019-05-01T04:28:24.157Z,11.48
2019-05-01T04:29:25.542Z,11.56
2019-05-01T04:30:26.941Z,11.51
2019-05-01T04:31:28.329Z,11.51
2019-05-01T04:32:29.716Z,11.57
2019-05-01T04:33:31.113Z,11.57
2019-05-01T04:34:32.507Z,11.60
2019-05-01T04:35:33.911Z,11.53
2019-05-01T04:36:35.313Z,11.59
2019-05-01T04:37:36.715Z,11.69
2019-05-01T04:38:38.115Z,11.77
2019-05-01T04:39:39.496Z,11.70
2019-05-01T04:40:40.893Z,11.69
2019-05-01T04:41:42.296Z,11.70
2019-05-01T04:42:43.685Z,11.70
2019-05-01T04:43:45.084Z,11.70
2019-05-01T04:44:46.481Z,11.70
2019-05-01T04:45:47.869Z,11.67
2019-05-01T04:46:49.272Z,11.70
2019-05-01T04:47:50.658Z,11.67
2019-05-01T04:48:52.054Z,11.69
2019-05-01T04:49:53.442Z,11.64
2019-05-01T04:50:54.829Z,11.66
2019-05-01T04:51:56.226Z,11.70
2019-05-01T04:52:57.615Z,11.67
2019-05-01T04:53:59.007Z,11.70
2019-05-01T04:55:00.403Z,11.66
2019-05-01T04:56:01.797Z,11.74
2019-05-01T04:57:03.200Z,11.72
2019-05-01T04:58:04.599Z,11.75
2019-05-01T04:59:05.996Z,11.81
2019-05-01T05:00:07.392Z,11.88
2019-05-01T05:01:08.787Z,11.88
2019-05-01T05:02:10.187Z,11.87
2019-05-01T05:03:11.588Z,11.97
2019-05-01T05:04:12.980Z,11.94
2019-05-01T05:05:14.391Z,11.93
2019-05-01T05:06:15.788Z,11.97
2019-05-01T05:07:17.174Z,11.98
2019-05-01T05:08:18.572Z,11.85
2019-05-01T05:09:19.967Z,11.94
2019-05-01T05:10:21.365Z,11.84
2019-05-01T05:11:22.755Z,11.88
2019-05-01T05:12:24.145Z,11.82
2019-05-01T05:13:25.541Z,11.85
2019-05-01T05:14:26.938Z,11.94
2019-05-01T05:15:28.334Z,11.98
2019-05-01T05:16:29.733Z,11.96
2019-05-01T05:17:31.121Z,12.03
2019-05-01T05:18:32.515Z,11.98
2019-05-01T05:19:34.045Z,12.22
2019-05-01T05:20:35.441Z,12.15
2019-05-01T05:21:36.850Z,12.19
2019-05-01T05:22:38.240Z,12.15
2019-05-01T05:23:39.638Z,12.11
2019-05-01T05:24:41.031Z,12.16
2019-05-01T05:25:42.433Z,12.26
2019-05-01T05:26:43.828Z,12.30
2019-05-01T05:27:45.232Z,12.41
2019-05-01T05:28:46.619Z,12.41
2019-05-01T05:29:48.016Z,12.44
2019-05-01T05:30:49.410Z,12.49
2019-05-01T05:31:50.804Z,12.37
2019-05-01T05:32:52.198Z,12.36
2019-05-01T05:33:53.603Z,12.36
2019-05-01T05:34:54.986Z,12.33
2019-05-01T05:35:56.368Z,12.34
2019-05-01T05:36:57.822Z,12.30
2019-05-01T05:37:59.155Z,12.29
2019-05-01T05:39:00.551Z,12.25
2019-05-01T05:40:01.994Z,12.29
2019-05-01T05:41:03.339Z,12.13
2019-05-01T05:42:04.731Z,12.22
2019-05-01T05:43:06.712Z,12.21
2019-05-01T05:44:08.098Z,12.30
2019-05-01T05:45:09.487Z,12.31
2019-05-01T05:46:10.882Z,12.31
2019-05-01T05:47:12.271Z,12.19
2019-05-01T05:48:13.665Z,12.18
2019-05-01T05:49:15.053Z,12.19
2019-05-01T05:50:16.452Z,12.11
2019-05-01T05:51:17.850Z,12.13
2019-05-01T05:52:19.242Z,12.18
2019-05-01T05:53:20.636Z,12.15
2019-05-01T05:54:22.032Z,12.16
2019-05-01T05:55:23.429Z,12.13
2019-05-01T05:56:24.821Z,12.15
2019-05-01T05:57:26.220Z,12.13
2019-05-01T05:58:27.615Z,12.34
2019-05-01T05:59:29.016Z,12.29
2019-05-01T06:00:30.409Z,12.30
2019-05-01T06:01:31.804Z,12.37
2019-05-01T06:02:33.202Z,12.46
2019-05-01T06:03:35.181Z,12.31
2019-05-01T06:04:35.959Z,12.37
2019-05-01T06:05:37.345Z,12.40
2019-05-01T06:06:38.740Z,12.48
2019-05-01T06:07:40.137Z,12.34
2019-05-01T06:08:41.616Z,12.34
2019-05-01T06:09:44.762Z,12.40
2019-05-01T06:10:44.250Z,12.48
2019-05-01T06:11:45.667Z,12.49
2019-05-01T06:12:48.560Z,12.58
2019-05-01T06:13:48.439Z,12.55
2019-05-01T06:14:49.833Z,12.58
2019-05-01T06:15:51.223Z,12.74
2019-05-01T06:16:53.996Z,12.70
2019-05-01T06:17:53.978Z,12.74
2019-05-01T06:18:55.375Z,12.62
2019-05-01T06:19:56.782Z,12.59
2019-05-01T06:21:02.217Z,12.55
2019-05-01T06:21:59.528Z,12.55
2019-05-01T06:23:00.927Z,12.56
2019-05-01T06:24:06.551Z,12.58
2019-05-01T06:25:03.678Z,12.62
2019-05-01T06:26:05.088Z,12.73
2019-05-01T06:27:08.878Z,12.80
2019-05-01T06:28:07.826Z,12.87
2019-05-01T06:29:09.217Z,12.89
2019-05-01T06:30:10.979Z,12.87
2019-05-01T06:31:11.978Z,12.81
2019-05-01T06:32:13.374Z,12.85
2019-05-01T06:33:14.767Z,12.81
2019-05-01T06:34:16.154Z,12.69
2019-05-01T06:35:17.555Z,12.61
2019-05-01T06:36:18.940Z,12.62
2019-05-01T06:37:20.837Z,12.70
2019-05-01T06:38:21.694Z,12.63
2019-05-01T06:39:23.094Z,12.80
2019-05-01T06:40:24.483Z,12.74
2019-05-01T06:41:28.614Z,12.63
2019-05-01T06:42:27.239Z,12.56
2019-05-01T06:43:28.639Z,12.58
2019-05-01T06:44:33.557Z,12.70
2019-05-01T06:45:31.389Z,12.77
2019-05-01T06:46:35.263Z,12.81
2019-05-01T06:47:38.041Z,12.77
2019-05-01T06:48:35.498Z,12.91
2019-05-01T06:49:36.898Z,12.85
2019-05-01T06:50:41.555Z,12.77
2019-05-01T06:51:39.656Z,12.85
2019-05-01T06:52:41.060Z,12.88
2019-05-01T06:53:42.462Z,13.01
2019-05-01T06:54:47.663Z,13.01
2019-05-01T06:55:45.211Z,13.12
2019-05-01T06:56:47.605Z,13.22
2019-05-01T06:57:49.008Z,13.16
2019-05-01T06:58:51.086Z,13.39
2019-05-01T06:59:51.778Z,13.39
2019-05-01T07:00:53.172Z,13.48
2019-05-01T07:01:58.480Z,13.47
2019-05-01T07:02:55.929Z,13.59
2019-05-01T07:04:03.366Z,13.71
2019-05-01T07:04:58.692Z,13.86
2019-05-01T07:06:00.095Z,14.02
2019-05-01T07:07:01.931Z,14.42
2019-05-01T07:08:02.848Z,14.98
2019-05-01T07:09:07.002Z,15.66
2019-05-01T07:10:05.610Z,16.06
2019-05-01T07:11:10.933Z,16.41
2019-05-01T07:12:08.361Z,16.63
2019-05-01T07:13:09.766Z,16.69
2019-05-01T07:14:15.773Z,16.90
2019-05-01T07:15:12.546Z,16.84
2019-05-01T07:16:13.962Z,16.91
2019-05-01T07:17:15.366Z,16.90
2019-05-01T07:18:18.838Z,16.98
2019-05-01T07:19:18.124Z,17.00
2019-05-01T07:20:19.523Z,16.80
2019-05-01T07:21:22.763Z,16.62
2019-05-01T07:22:22.316Z,16.42
2019-05-01T07:23:23.694Z,16.37
2019-05-01T07:24:27.954Z,16.11
2019-05-01T07:25:26.452Z,16.13
2019-05-01T07:26:27.854Z,16.10
2019-05-01T07:27:29.264Z,15.96
2019-05-01T07:28:34.195Z,15.96
2019-05-01T07:29:32.963Z,16.03
2019-05-01T07:30:33.388Z,15.93
2019-05-01T07:31:34.793Z,15.89
2019-05-01T07:32:36.418Z,15.96
2019-05-01T07:33:37.571Z,16.13
2019-05-01T07:34:38.972Z,16.16
2019-05-01T07:35:40.378Z,16.14
2019-05-01T07:36:45.524Z,16.22
2019-05-01T07:37:43.137Z,16.30
2019-05-01T07:38:44.545Z,16.42
2019-05-01T07:39:49.953Z,16.40
2019-05-01T07:40:47.336Z,16.42
2019-05-01T07:41:48.733Z,16.33
2019-05-01T07:42:50.139Z,16.27
2019-05-01T07:43:54.974Z,16.25
2019-05-01T07:44:52.900Z,16.11
2019-05-01T07:45:54.297Z,16.04
2019-05-01T07:46:56.256Z,15.92
2019-05-01T07:48:00.983Z,15.96
2019-05-01T07:48:58.418Z,15.88
2019-05-01T07:49:59.820Z,15.78
2019-05-01T07:51:01.955Z,15.74
2019-05-01T07:52:02.582Z,15.66
2019-05-01T07:53:03.975Z,15.74
2019-05-01T07:54:08.753Z,15.77
2019-05-01T07:55:06.771Z,15.67
2019-05-01T07:56:08.160Z,15.74
2019-05-01T07:57:09.568Z,15.62
2019-05-01T07:58:16.029Z,15.43
2019-05-01T07:59:12.340Z,15.30
2019-05-01T08:00:13.737Z,15.25
2019-05-01T08:01:18.320Z,15.13
2019-05-01T08:02:16.504Z,15.33
2019-05-01T08:03:17.911Z,15.38
2019-05-01T08:04:35.297Z,15.35
2019-05-01T08:05:20.677Z,15.25
2019-05-01T08:06:22.922Z,15.31
2019-05-01T08:07:23.439Z,15.30
2019-05-01T08:08:24.847Z,15.33
2019-05-01T08:09:26.247Z,15.37
2019-05-01T08:10:30.828Z,15.41
2019-05-01T08:11:29.014Z,15.48
2019-05-01T08:12:30.429Z,15.55
2019-05-01T08:13:34.965Z,15.77
2019-05-01T08:14:33.205Z,15.80
2019-05-01T08:15:34.603Z,15.89
2019-05-01T08:16:37.855Z,16.10
2019-05-01T08:17:37.405Z,16.23
2019-05-01T08:18:38.821Z,16.81
2019-05-01T08:19:40.714Z,17.06
2019-05-01T08:20:41.554Z,17.60
2019-05-01T08:21:42.962Z,17.79
2019-05-01T08:22:44.357Z,18.17
2019-05-01T08:23:47.228Z,18.49
2019-05-01T08:24:47.160Z,18.21
2019-05-01T08:25:48.579Z,18.19
2019-05-01T08:26:49.967Z,17.95
2019-05-01T08:27:55.836Z,17.73
2019-05-01T08:28:52.787Z,17.98
2019-05-01T08:29:54.191Z,18.38
2019-05-01T08:30:55.605Z,18.57
2019-05-01T08:31:58.735Z,18.64
2019-05-01T08:32:58.409Z,18.57
2019-05-01T08:33:59.819Z,18.57
2019-05-01T08:35:02.419Z,18.93
2019-05-01T08:36:06.678Z,19.60
2019-05-01T08:37:06.480Z,20.00
2019-05-01T08:38:05.935Z,20.12
2019-05-01T08:39:09.228Z,20.01
2019-05-01T08:40:08.705Z,19.87
2019-05-01T08:41:10.114Z,19.32
2019-05-01T08:42:11.512Z,18.96
2019-05-01T08:43:13.687Z,18.82
2019-05-01T08:44:14.306Z,18.94
2019-05-01T08:45:15.718Z,18.91
2019-05-01T08:46:17.776Z,18.87
2019-05-01T08:47:20.786Z,18.86
2019-05-01T08:48:19.854Z,18.87
2019-05-01T08:49:21.266Z,18.82
2019-05-01T08:50:24.817Z,19.52
2019-05-01T08:51:24.057Z,19.87
2019-05-01T08:52:25.457Z,19.89
2019-05-01T08:53:26.900Z,19.65
2019-05-01T08:54:29.043Z,19.53
2019-05-01T08:55:29.856Z,19.55
2019-05-01T08:56:31.271Z,20.19
2019-05-01T08:57:34.553Z,21.06
2019-05-01T08:58:34.077Z,21.63
2019-05-01T08:59:35.612Z,22.11
2019-05-01T09:00:40.956Z,22.19
2019-05-01T09:01:38.380Z,21.71
2019-05-01T09:02:41.638Z,21.48
2019-05-01T09:03:41.155Z,21.85
2019-05-01T09:04:42.557Z,21.64
2019-05-01T09:05:44.014Z,21.18
2019-05-01T09:06:45.458Z,20.94
2019-05-01T09:07:46.870Z,20.66
2019-05-01T09:08:48.213Z,20.53
2019-05-01T09:09:49.623Z,20.60
2019-05-01T09:10:54.815Z,20.98
2019-05-01T09:11:54.551Z,20.91
2019-05-01T09:12:53.764Z,21.71
2019-05-01T09:13:58.787Z,21.94
2019-05-01T09:14:56.543Z,22.14
2019-05-01T09:15:57.983Z,22.41
2019-05-01T09:16:59.398Z,22.78
2019-05-01T09:18:00.802Z,22.96
2019-05-01T09:19:02.212Z,23.12
2019-05-01T09:20:03.624Z,23.60
2019-05-01T09:21:05.041Z,23.19
2019-05-01T09:22:06.468Z,22.84
2019-05-01T09:23:09.576Z,23.19
2019-05-01T09:24:09.246Z,23.29
2019-05-01T09:25:10.666Z,23.37
2019-05-01T09:26:15.931Z,24.02
2019-05-01T09:27:13.450Z,24.12
2019-05-01T09:28:14.857Z,23.96
2019-05-01T09:29:17.828Z,24.48
2019-05-01T09:30:21.685Z,24.09
2019-05-01T09:31:19.041Z,24.39
2019-05-01T09:32:20.439Z,24.63
2019-05-01T09:33:21.851Z,24.33
2019-05-01T09:34:23.281Z,24.31
2019-05-01T09:35:24.697Z,24.11
2019-05-01T09:36:26.111Z,24.67
2019-05-01T09:37:27.520Z,25.14
2019-05-01T09:38:28.953Z,25.31
2019-05-01T09:39:30.354Z,25.66
2019-05-01T09:40:31.775Z,25.97
2019-05-01T09:41:38.333Z,26.38
2019-05-01T09:42:34.570Z,25.83
2019-05-01T09:43:36.943Z,25.02
2019-05-01T09:44:37.385Z,24.80
2019-05-01T09:45:38.800Z,24.77
2019-05-01T09:46:40.212Z,24.44
2019-05-01T09:47:41.627Z,24.00
2019-05-01T09:48:43.051Z,23.23
2019-05-01T09:49:44.483Z,22.93
2019-05-01T09:50:45.900Z,22.42
2019-05-01T09:51:47.607Z,22.14
2019-05-01T09:52:48.690Z,21.82
2019-05-01T09:53:50.102Z,21.61
2019-05-01T09:54:51.514Z,21.36
2019-05-01T09:55:52.927Z,21.22
2019-05-01T09:56:54.349Z,21.09
2019-05-01T09:57:55.766Z,21.42
2019-05-01T09:58:57.198Z,21.27
2019-05-01T09:59:58.610Z,21.79
2019-05-01T10:01:00.006Z,21.28
2019-05-01T10:02:02.955Z,21.66
2019-05-01T10:03:02.776Z,21.40
2019-05-01T10:04:05.580Z,21.82
2019-05-01T10:05:06.638Z,22.54
2019-05-01T10:06:07.005Z,23.11
2019-05-01T10:07:08.466Z,23.90
2019-05-01T10:08:09.898Z,24.49
2019-05-01T10:09:12.010Z,24.75
2019-05-01T10:10:12.805Z,24.90
2019-05-01T10:11:14.211Z,24.94
2019-05-01T10:12:15.645Z,24.71
2019-05-01T10:13:17.767Z,24.06
2019-05-01T10:14:18.479Z,23.94
2019-05-01T10:15:19.890Z,23.59
2019-05-01T10:16:21.307Z,22.96
2019-05-01T10:17:22.716Z,22.67
2019-05-01T10:18:24.151Z,23.00
2019-05-01T10:19:25.562Z,23.78
2019-05-01T10:20:26.968Z,24.06
2019-05-01T10:21:28.969Z,24.15
2019-05-01T10:22:32.933Z,24.64
2019-05-01T10:23:31.108Z,24.93
2019-05-01T10:24:37.291Z,25.42
2019-05-01T10:25:33.893Z,25.38
2019-05-01T10:26:35.301Z,24.89
2019-05-01T10:27:37.466Z,24.90
2019-05-01T10:28:38.081Z,24.45
2019-05-01T10:29:39.500Z,24.44
2019-05-01T10:30:40.909Z,24.06
2019-05-01T10:31:42.904Z,23.75
2019-05-01T10:32:43.679Z,23.45
2019-05-01T10:33:45.095Z,22.91
2019-05-01T10:34:46.497Z,22.60
2019-05-01T10:35:47.906Z,22.41
2019-05-01T10:36:49.903Z,22.24
2019-05-01T10:37:50.693Z,22.02
2019-05-01T10:38:52.105Z,21.70
2019-05-01T10:39:54.174Z,21.71
2019-05-01T10:40:54.872Z,21.68
2019-05-01T10:41:56.286Z,21.96
2019-05-01T10:42:57.704Z,21.82
2019-05-01T10:43:59.100Z,21.81
2019-05-01T10:45:00.526Z,21.77
2019-05-01T10:46:01.963Z,21.71
2019-05-01T10:47:03.361Z,21.49
2019-05-01T10:48:04.770Z,21.38
2019-05-01T10:49:06.222Z,21.37
2019-05-01T10:50:07.586Z,21.05
2019-05-01T10:51:08.988Z,21.05
2019-05-01T10:52:14.398Z,21.06
2019-05-01T10:53:11.772Z,21.13
2019-05-01T10:54:13.180Z,21.38
2019-05-01T10:55:14.592Z,21.74
2019-05-01T10:56:16.002Z,22.02
2019-05-01T10:57:17.405Z,22.44
2019-05-01T10:58:20.229Z,22.69
2019-05-01T10:59:20.202Z,23.01
2019-05-01T11:00:21.620Z,23.71
2019-05-01T11:01:23.031Z,23.90
2019-05-01T11:02:24.442Z,24.24
2019-05-01T11:03:25.846Z,23.86
2019-05-01T11:04:27.266Z,24.08
2019-05-01T11:05:28.661Z,24.31
2019-05-01T11:06:30.081Z,24.74
2019-05-01T11:07:31.480Z,24.77
2019-05-01T11:08:32.896Z,24.56
2019-05-01T11:09:34.303Z,24.11
2019-05-01T11:10:35.712Z,23.44
2019-05-01T11:11:37.114Z,22.66
2019-05-01T11:12:38.526Z,22.12
2019-05-01T11:13:39.935Z,21.48
2019-05-01T11:14:41.334Z,21.00
2019-05-01T11:15:42.756Z,20.82
2019-05-01T11:16:44.160Z,20.82
2019-05-01T11:17:45.589Z,20.83
2019-05-01T11:18:46.995Z,21.53
2019-05-01T11:19:48.411Z,22.01
2019-05-01T11:20:49.813Z,22.66
2019-05-01T11:21:51.219Z,22.93
2019-05-01T11:22:52.644Z,22.49
2019-05-01T11:23:54.041Z,22.20
2019-05-01T11:24:55.459Z,21.86
2019-05-01T11:25:56.860Z,21.58
2019-05-01T11:26:58.263Z,21.05
2019-05-01T11:27:59.675Z,20.57
2019-05-01T11:29:01.100Z,20.35
2019-05-01T11:30:02.519Z,20.08
2019-05-01T11:31:03.919Z,19.86
2019-05-01T11:32:05.324Z,19.62
2019-05-01T11:33:06.727Z,19.27
2019-05-01T11:34:08.146Z,19.02
2019-05-01T11:35:09.562Z,18.87
2019-05-01T11:36:10.972Z,18.72
2019-05-01T11:37:12.392Z,18.53
2019-05-01T11:38:13.800Z,18.49
2019-05-01T11:39:15.203Z,18.36
2019-05-01T11:40:16.610Z,18.13
2019-05-01T11:41:18.016Z,18.07
2019-05-01T11:42:19.425Z,18.04
2019-05-01T11:43:20.858Z,18.14
2019-05-01T11:44:22.319Z,18.19
2019-05-01T11:45:23.725Z,18.25
2019-05-01T11:46:25.128Z,18.11
2019-05-01T11:47:26.535Z,18.07
2019-05-01T11:48:30.079Z,18.11
2019-05-01T11:49:29.321Z,18.04
2019-05-01T11:50:30.743Z,18.10
2019-05-01T11:51:32.169Z,18.29
2019-05-01T11:52:33.597Z,18.56
2019-05-01T11:53:35.016Z,18.76
2019-05-01T11:54:36.419Z,18.84
2019-05-01T11:55:37.815Z,19.02
2019-05-01T11:56:39.225Z,19.34
2019-05-01T11:57:40.636Z,19.50
2019-05-01T11:58:42.040Z,19.57
2019-05-01T11:59:43.450Z,19.82
2019-05-01T12:00:44.796Z,19.72
2019-05-01T12:01:46.213Z,19.65
2019-05-01T12:02:47.628Z,19.64
2019-05-01T12:03:49.075Z,19.87
2019-05-01T12:04:50.436Z,19.78
2019-05-01T12:05:51.836Z,19.86
2019-05-01T12:06:53.234Z,20.02
2019-05-01T12:07:54.647Z,20.04
2019-05-01T12:08:56.058Z,19.98
2019-05-01T12:09:57.471Z,20.00
2019-05-01T12:10:58.888Z,20.33
2019-05-01T12:12:00.330Z,20.31
2019-05-01T12:13:01.739Z,20.35
2019-05-01T12:14:03.142Z,20.31
2019-05-01T12:15:04.552Z,20.17
2019-05-01T12:16:05.957Z,20.13
2019-05-01T12:17:07.361Z,19.92
2019-05-01T12:18:08.763Z,19.55
2019-05-01T12:19:10.169Z,19.25
2019-05-01T12:20:11.577Z,19.09
2019-05-01T12:21:12.995Z,19.27
2019-05-01T12:22:14.397Z,19.34
2019-05-01T12:23:15.815Z,19.27
2019-05-01T12:24:17.224Z,19.20
2019-05-01T12:25:18.677Z,19.06
2019-05-01T12:26:20.076Z,19.07
2019-05-01T12:27:21.485Z,18.93
2019-05-01T12:28:22.900Z,18.69
2019-05-01T12:29:24.305Z,18.57
2019-05-01T12:30:25.737Z,18.59
2019-05-01T12:31:27.132Z,18.53
2019-05-01T12:32:28.606Z,18.49
2019-05-01T12:33:31.282Z,18.50
2019-05-01T12:34:33.572Z,18.51
2019-05-01T12:35:34.928Z,18.60
2019-05-01T12:36:36.761Z,18.57
2019-05-01T12:37:38.226Z,18.69
2019-05-01T12:38:39.644Z,18.66
2019-05-01T12:39:41.435Z,18.68
2019-05-01T12:40:43.205Z,18.65
2019-05-01T12:41:44.606Z,18.69
2019-05-01T12:42:46.013Z,18.49
2019-05-01T12:43:47.415Z,18.56
2019-05-01T12:44:48.825Z,18.57
2019-05-01T12:45:50.225Z,18.59
2019-05-01T12:46:51.673Z,18.42
2019-05-01T12:47:53.073Z,18.50
2019-05-01T12:48:54.477Z,18.54
2019-05-01T12:49:55.885Z,18.34
2019-05-01T12:50:57.308Z,18.21
2019-05-01T12:52:09.910Z,18.29
2019-05-01T12:53:00.084Z,18.23
2019-05-01T12:54:01.487Z,18.14
2019-05-01T12:55:02.896Z,18.23
2019-05-01T12:56:04.313Z,18.13
2019-05-01T12:57:05.709Z,18.20
2019-05-01T12:58:07.107Z,18.21
2019-05-01T12:59:08.513Z,18.26
2019-05-01T13:00:09.927Z,18.20
2019-05-01T13:01:11.324Z,18.20
2019-05-01T13:02:12.722Z,18.20
2019-05-01T13:03:14.128Z,18.25
2019-05-01T13:04:15.530Z,18.05
2019-05-01T13:05:16.936Z,18.01
2019-05-01T13:06:18.332Z,17.94
2019-05-01T13:07:19.742Z,17.74
2019-05-01T13:08:21.140Z,17.70
2019-05-01T13:09:22.544Z,17.62
2019-05-01T13:10:24.099Z,17.70